Time;durP1;ratioP1;P1;durP2;ratioP2;P2;SDS_P1;SDS_P2;PMS_P1;PMS_P2;Temp;Humidity;BMP_temperature;BMP_pressure;BME280_temperature;BME280_humidity;BME280_pressure;Samples;Min_cycle;Max_cycle;Signal;HPM_P1;HPM_P2
2024/04/13 00:00:18;;;;;;;6.25;1.65;;;;;;;;;;5393844;26;20011;-62
2024/04/13 00:02:50;;;;;;;3.97;1.60;;;;;;;;;;5392074;26;20009;-63
2024/04/13 00:05:16;;;;;;;4.53;1.70;;;;;;;;;;5361048;26;19999;-62
2024/04/13 00:07:44;;;;;;;2.72;1.27;;;;;;;;;;5354794;26;20023;-61
2024/04/13 00:10:10;;;;;;;6.15;2.22;;;;;;;;;;5357346;26;20068;-63
2024/04/13 00:12:38;;;;;;;8.20;3.95;;;;;;;;;;5353254;26;20007;-64
2024/04/13 00:15:04;;;;;;;8.35;3.45;;;;;;;;;;5392548;26;20014;-63
2024/04/13 00:17:38;;;;;;;11.38;3.60;;;;;;;;;;5409972;26;20003;-63
2024/04/13 00:20:07;;;;;;;4.63;1.90;;;;;;;;;;5404826;26;19996;-63
2024/04/13 00:22:36;;;;;;;6.07;1.50;;;;;;;;;;5392379;25;19999;-63
2024/04/13 00:25:02;;;;;;;5.60;1.70;;;;;;;;;;5433277;26;20033;-62
2024/04/13 00:27:31;;;;;;;4.47;1.58;;;;;;;;;;5402810;26;22060;-63
2024/04/13 00:29:58;;;;;;;5.53;1.73;;;;;;;;;;5411629;25;20232;-62
2024/04/13 00:32:30;;;;;;;6.95;1.50;;;;;;;;;;5398412;26;20056;-62
2024/04/13 00:34:55;;;;;;;6.90;1.50;;;;;;;;;;5391385;25;20000;-62
2024/04/13 00:37:30;;;;;;;5.25;1.52;;;;;;;;;;5390978;26;19995;-61
2024/04/13 00:39:56;;;;;;;4.68;1.30;;;;;;;;;;5400299;26;19998;-62
2024/04/13 00:42:28;;;;;;;2.40;1.30;;;;;;;;;;5395766;26;20008;-62
2024/04/13 00:45:03;;;;;;;3.05;1.40;;;;;;;;;;5444914;25;20020;-61
2024/04/13 00:47:40;;;;;;;4.65;1.38;;;;;;;;;;5422468;25;20205;-62
2024/04/13 00:50:11;;;;;;;3.40;1.42;;;;;;;;;;5395719;26;20014;-62
2024/04/13 00:52:44;;;;;;;3.58;1.60;;;;;;;;;;5385498;26;20019;-63
2024/04/13 00:55:10;;;;;;;8.05;1.67;;;;;;;;;;5375987;25;20003;-63
2024/04/13 00:57:41;;;;;;;6.20;1.60;;;;;;;;;;5405948;26;20010;-62
2024/04/13 01:00:12;;;;;;;3.67;1.58;;;;;;;;;;5405998;26;20022;-62
2024/04/13 01:02:42;;;;;;;4.03;1.52;;;;;;;;;;5407169;25;20034;-62
2024/04/13 01:05:13;;;;;;;5.72;1.23;;;;;;;;;;5384729;26;20004;-63
2024/04/13 01:07:46;;;;;;;4.35;1.60;;;;;;;;;;5413738;26;20003;-62
2024/04/13 01:10:16;;;;;;;2.38;1.23;;;;;;;;;;5396809;26;20078;-61
2024/04/13 01:12:46;;;;;;;4.95;1.90;;;;;;;;;;5401908;26;20007;-63
2024/04/13 01:15:11;;;;;;;4.45;2.20;;;;;;;;;;5367262;26;20000;-62
2024/04/13 01:17:41;;;;;;;5.85;2.65;;;;;;;;;;5372643;26;20101;-62
2024/04/13 01:20:08;;;;;;;19.40;6.65;;;;;;;;;;5372701;26;20102;-62
2024/04/13 01:22:42;;;;;;;13.05;5.32;;;;;;;;;;5357127;26;20118;-62
2024/04/13 01:25:10;;;;;;;7.10;3.20;;;;;;;;;;5360991;25;20000;-63
2024/04/13 01:27:39;;;;;;;;;;;;;;;;;;5369009;26;20018;-61
2024/04/13 01:30:08;;;;;;;4.72;1.77;;;;;;;;;;5382639;26;19971;-62
2024/04/13 01:32:37;;;;;;;4.70;1.80;;;;;;;;;;5374419;26;20023;-63
2024/04/13 01:35:09;;;;;;;8.35;2.13;;;;;;;;;;5408970;26;20014;-61
2024/04/13 01:37:39;;;;;;;6.38;1.67;;;;;;;;;;5365354;26;20008;-62
2024/04/13 01:40:06;;;;;;;5.53;1.88;;;;;;;;;;5359842;26;20118;-62
2024/04/13 01:42:37;;;;;;;5.57;2.08;;;;;;;;;;5372007;26;20016;-62
2024/04/13 01:45:04;;;;;;;6.00;1.63;;;;;;;;;;5394840;26;20105;-62
2024/04/13 01:47:32;;;;;;;4.10;1.88;;;;;;;;;;5394473;26;20022;-61
2024/04/13 01:49:58;;;;;;;7.00;1.95;;;;;;;;;;5420183;26;20017;-61
2024/04/13 01:52:27;;;;;;;3.95;1.70;;;;;;;;;;5417896;25;20005;-61
2024/04/13 01:54:53;;;;;;;7.88;2.05;;;;;;;;;;5401289;25;20018;-61
2024/04/13 01:57:21;;;;;;;4.03;1.60;;;;;;;;;;5394913;26;19995;-64
2024/04/13 01:59:50;;;;;;;3.60;1.67;;;;;;;;;;5412284;26;20051;-64
2024/04/13 02:02:19;;;;;;;;;;;;;;;;;;5417064;26;19999;-64
2024/04/13 02:04:44;;;;;;;3.30;1.67;;;;;;;;;;5377857;25;19925;-61
2024/04/13 02:07:13;;;;;;;2.90;1.60;;;;;;;;;;5412196;26;20007;-62
2024/04/13 02:09:38;;;;;;;5.47;1.98;;;;;;;;;;5405989;26;20004;-61
2024/04/13 02:12:08;;;;;;;4.05;1.70;;;;;;;;;;5399342;25;20010;-61
2024/04/13 02:14:34;;;;;;;5.03;2.00;;;;;;;;;;5401129;25;20015;-64
2024/04/13 02:17:05;;;;;;;7.82;2.10;;;;;;;;;;5418109;25;20038;-64
2024/04/13 02:19:31;;;;;;;2.92;1.55;;;;;;;;;;5400330;26;20088;-64
2024/04/13 02:22:00;;;;;;;4.38;1.90;;;;;;;;;;5422286;26;20046;-64
2024/04/13 02:24:25;;;;;;;4.90;1.95;;;;;;;;;;5407068;25;20076;-64
2024/04/13 02:26:54;;;;;;;3.15;1.50;;;;;;;;;;5409661;26;20007;-62
2024/04/13 02:29:19;;;;;;;6.05;1.95;;;;;;;;;;5395135;26;20018;-62
2024/04/13 02:31:48;;;;;;;6.55;1.70;;;;;;;;;;5393564;26;20003;-62
2024/04/13 02:34:16;;;;;;;4.03;1.80;;;;;;;;;;5376037;26;20273;-64
2024/04/13 02:36:46;;;;;;;3.45;1.55;;;;;;;;;;5389453;26;20000;-62
2024/04/13 02:39:13;;;;;;;4.95;1.83;;;;;;;;;;5412177;26;20003;-62
2024/04/13 02:41:41;;;;;;;6.10;2.13;;;;;;;;;;5411179;26;20000;-62
2024/04/13 02:44:07;;;;;;;4.03;2.03;;;;;;;;;;5376567;25;20017;-63
2024/04/13 02:46:36;;;;;;;5.25;1.80;;;;;;;;;;5386597;26;20008;-62
2024/04/13 02:49:02;;;;;;;5.35;1.90;;;;;;;;;;5365379;26;20102;-62
2024/04/13 02:51:33;;;;;;;4.90;2.20;;;;;;;;;;5390163;26;20003;-63
2024/04/13 02:53:59;;;;;;;4.03;1.85;;;;;;;;;;5361937;25;19995;-62
2024/04/13 02:56:28;;;;;;;5.60;1.80;;;;;;;;;;5389596;26;20051;-62
2024/04/13 02:58:53;;;;;;;4.32;1.80;;;;;;;;;;5403347;26;20088;-62
2024/04/13 03:01:22;;;;;;;3.90;1.85;;;;;;;;;;5398224;26;20018;-62
2024/04/13 03:03:48;;;;;;;5.18;1.77;;;;;;;;;;5413448;25;20009;-62
2024/04/13 03:06:16;;;;;;;6.07;2.50;;;;;;;;;;5436894;26;19998;-63
2024/04/13 03:08:44;;;;;;;3.58;1.60;;;;;;;;;;5421518;25;20071;-63
2024/04/13 03:11:13;;;;;;;6.05;2.08;;;;;;;;;;5420094;26;20003;-61
2024/04/13 03:13:38;;;;;;;4.82;1.98;;;;;;;;;;5422286;25;20011;-62
2024/04/13 03:16:09;;;;;;;4.07;1.90;;;;;;;;;;5411865;26;21589;-63
2024/04/13 03:18:38;;;;;;;4.03;1.88;;;;;;;;;;5396589;26;20000;-62
2024/04/13 03:21:07;;;;;;;4.65;1.80;;;;;;;;;;5400151;26;20068;-63
2024/04/13 03:23:33;;;;;;;6.13;1.60;;;;;;;;;;5373532;25;20018;-63
2024/04/13 03:26:05;;;;;;;6.18;1.90;;;;;;;;;;5397944;26;20006;-62
2024/04/13 03:28:33;;;;;;;4.25;1.98;;;;;;;;;;5397738;26;20035;-63
2024/04/13 03:31:01;;;;;;;7.90;2.00;;;;;;;;;;5411402;26;20007;-62
2024/04/13 03:33:27;;;;;;;4.10;1.75;;;;;;;;;;5397626;25;20019;-62
2024/04/13 03:36:02;;;;;;;5.97;2.08;;;;;;;;;;5416858;26;20007;-62
2024/04/13 03:38:30;;;;;;;4.97;2.10;;;;;;;;;;5423217;25;19999;-63
2024/04/13 03:41:06;;;;;;;2.97;1.55;;;;;;;;;;5408092;25;20022;-63
2024/04/13 03:43:34;;;;;;;5.07;1.90;;;;;;;;;;5397497;25;20011;-63
2024/04/13 03:46:00;;;;;;;3.65;1.40;;;;;;;;;;5391694;26;20074;-63
2024/04/13 03:48:28;;;;;;;4.78;1.65;;;;;;;;;;5395711;25;20014;-63
2024/04/13 03:50:54;;;;;;;4.30;1.65;;;;;;;;;;5398617;26;19999;-63
2024/04/13 03:53:22;;;;;;;4.80;2.22;;;;;;;;;;5393633;26;20000;-62
2024/04/13 03:55:48;;;;;;;4.70;1.83;;;;;;;;;;5387767;26;20139;-62
2024/04/13 03:58:19;;;;;;;5.32;1.73;;;;;;;;;;5399567;26;20139;-62
2024/04/13 04:00:47;;;;;;;4.97;2.00;;;;;;;;;;5421575;26;20004;-63
2024/04/13 04:03:16;;;;;;;6.45;2.10;;;;;;;;;;5426190;26;20014;-61
2024/04/13 04:05:42;;;;;;;4.18;1.75;;;;;;;;;;5392924;25;20026;-62
2024/04/13 04:08:10;;;;;;;6.72;1.85;;;;;;;;;;5385934;26;20008;-62
2024/04/13 04:10:37;;;;;;;4.32;1.70;;;;;;;;;;5397428;26;20018;-62
2024/04/13 04:13:06;;;;;;;4.20;2.17;;;;;;;;;;5398104;26;20007;-62
2024/04/13 04:15:34;;;;;;;;;;;;;;;;;;5432800;26;20001;-62
2024/04/13 04:18:02;;;;;;;4.63;1.50;;;;;;;;;;5385814;26;19925;-62
2024/04/13 04:20:30;;;;;;;;;;;;;;;;;;5389313;26;19999;-63
2024/04/13 04:22:58;;;;;;;4.47;1.70;;;;;;;;;;5387791;25;19925;-63
2024/04/13 04:25:24;;;;;;;4.22;1.92;;;;;;;;;;5363697;25;20011;-61
2024/04/13 04:27:53;;;;;;;5.65;2.03;;;;;;;;;;5361531;26;20013;-61
2024/04/13 04:30:18;;;;;;;;;;;;;;;;;;5344924;26;20019;-61
2024/04/13 04:32:49;;;;;;;8.70;1.98;;;;;;;;;;5367524;26;19927;-64
2024/04/13 04:35:15;;;;;;;5.90;1.88;;;;;;;;;;5368047;25;20016;-64
2024/04/13 04:37:43;;;;;;;7.05;2.20;;;;;;;;;;5404694;26;20019;-63
2024/04/13 04:40:09;;;;;;;6.57;2.05;;;;;;;;;;5384201;26;20010;-63
2024/04/13 04:42:38;;;;;;;4.85;2.03;;;;;;;;;;5394297;26;19999;-63
2024/04/13 04:45:05;;;;;;;9.57;2.55;;;;;;;;;;5395839;26;20078;-64
2024/04/13 04:47:34;;;;;;;4.95;1.80;;;;;;;;;;5403540;25;20007;-63
2024/04/13 04:50:03;;;;;;;4.95;2.00;;;;;;;;;;5411316;26;20003;-64
2024/04/13 04:52:32;;;;;;;5.90;2.10;;;;;;;;;;5396598;26;20404;-63
2024/04/13 04:55:00;;;;;;;7.07;1.73;;;;;;;;;;5366969;25;19996;-63
2024/04/13 04:57:29;;;;;;;5.70;2.00;;;;;;;;;;5359404;26;20004;-64
2024/04/13 04:59:55;;;;;;;3.55;1.58;;;;;;;;;;5362861;26;20008;-64
2024/04/13 05:02:24;;;;;;;4.32;1.63;;;;;;;;;;5360306;26;20122;-64
2024/04/13 05:04:49;;;;;;;;;;;;;;;;;;5384049;25;20003;-64
2024/04/13 05:07:20;;;;;;;6.20;1.90;;;;;;;;;;5411957;26;19931;-63
2024/04/13 05:09:46;;;;;;;8.07;2.20;;;;;;;;;;5406296;26;20019;-64
2024/04/13 05:12:14;;;;;;;5.18;1.70;;;;;;;;;;5406494;25;19995;-63
2024/04/13 05:14:39;;;;;;;6.85;2.47;;;;;;;;;;5409215;25;20059;-63
2024/04/13 05:17:08;;;;;;;8.55;2.40;;;;;;;;;;5417708;26;20012;-63
2024/04/13 05:19:35;;;;;;;6.38;1.92;;;;;;;;;;5410725;25;20434;-63
2024/04/13 05:22:07;;;;;;;5.25;2.38;;;;;;;;;;5415793;26;20013;-64
2024/04/13 05:24:37;;;;;;;7.57;2.13;;;;;;;;;;5413642;25;20122;-63
2024/04/13 05:27:07;;;;;;;5.90;2.00;;;;;;;;;;5431209;26;20018;-63
2024/04/13 05:29:34;;;;;;;7.47;2.13;;;;;;;;;;5424981;26;20018;-63
2024/04/13 05:32:05;;;;;;;5.85;2.35;;;;;;;;;;5393566;26;19999;-63
2024/04/13 05:34:30;;;;;;;6.47;2.65;;;;;;;;;;5369736;26;19995;-63
2024/04/13 05:36:59;;;;;;;6.15;2.30;;;;;;;;;;5370892;26;20004;-64
2024/04/13 05:39:24;;;;;;;8.45;2.38;;;;;;;;;;5375742;26;20102;-64
2024/04/13 05:41:55;;;;;;;7.63;2.65;;;;;;;;;;5369092;26;20011;-63
2024/04/13 05:44:21;;;;;;;4.68;2.08;;;;;;;;;;5386614;26;21139;-64
2024/04/13 05:46:50;;;;;;;7.13;2.83;;;;;;;;;;5406475;26;20000;-64
2024/04/13 05:49:16;;;;;;;7.20;2.83;;;;;;;;;;5407951;26;20018;-63
2024/04/13 05:51:44;;;;;;;10.15;2.90;;;;;;;;;;5402121;26;20008;-63
2024/04/13 05:54:10;;;;;;;6.80;2.97;;;;;;;;;;5385184;25;20009;-63
2024/04/13 05:56:38;;;;;;;7.22;2.97;;;;;;;;;;5442422;26;20003;-63
2024/04/13 05:59:07;;;;;;;5.55;2.70;;;;;;;;;;5406622;26;20004;-63
2024/04/13 06:01:36;;;;;;;5.97;3.03;;;;;;;;;;5400561;26;20015;-61
2024/04/13 06:04:01;;;;;;;10.50;3.00;;;;;;;;;;5400834;25;20014;-62
2024/04/13 06:06:30;;;;;;;8.18;3.47;;;;;;;;;;5455723;26;19999;-62
2024/04/13 06:08:57;;;;;;;9.65;3.05;;;;;;;;;;5412688;26;20020;-63
2024/04/13 06:11:25;;;;;;;19.40;4.28;;;;;;;;;;5417958;26;19998;-62
2024/04/13 06:13:51;;;;;;;7.75;3.10;;;;;;;;;;5406409;25;20050;-62
2024/04/13 06:16:22;;;;;;;7.28;3.38;;;;;;;;;;5374314;26;20004;-62
2024/04/13 06:18:48;;;;;;;7.05;3.40;;;;;;;;;;5377477;26;20111;-62
2024/04/13 06:21:16;;;;;;;8.70;3.35;;;;;;;;;;5375905;26;20042;-62
2024/04/13 06:23:42;;;;;;;8.48;3.22;;;;;;;;;;5369655;26;20007;-62
2024/04/13 06:26:10;;;;;;;9.90;3.58;;;;;;;;;;5359473;26;19996;-63
2024/04/13 06:28:36;;;;;;;9.70;3.75;;;;;;;;;;5364147;26;20037;-63
2024/04/13 06:31:04;;;;;;;7.80;3.28;;;;;;;;;;5368773;26;20020;-63
2024/04/13 06:33:33;;;;;;;13.40;3.72;;;;;;;;;;5365396;26;20019;-63
2024/04/13 06:36:04;;;;;;;10.18;4.43;;;;;;;;;;5369132;26;20011;-63
2024/04/13 06:38:29;;;;;;;12.27;3.88;;;;;;;;;;5362245;26;21604;-62
2024/04/13 06:41:02;;;;;;;9.60;3.67;;;;;;;;;;5370383;26;20003;-63
2024/04/13 06:43:27;;;;;;;10.70;3.60;;;;;;;;;;5367789;25;20008;-64
2024/04/13 06:45:59;;;;;;;9.18;4.07;;;;;;;;;;5449323;25;20066;-63
2024/04/13 06:48:25;;;;;;;10.20;4.03;;;;;;;;;;5402465;25;21157;-64
2024/04/13 06:50:56;;;;;;;11.75;3.97;;;;;;;;;;5402128;26;20000;-64
2024/04/13 06:53:23;;;;;;;13.23;4.47;;;;;;;;;;5409283;25;20006;-63
2024/04/13 06:55:51;;;;;;;9.30;4.15;;;;;;;;;;5371660;26;20017;-63
2024/04/13 06:58:23;;;;;;;10.45;4.22;;;;;;;;;;5398293;25;20052;-63
2024/04/13 07:00:54;;;;;;;9.77;4.40;;;;;;;;;;5412025;26;20019;-63
2024/04/13 07:03:22;;;;;;;15.18;3.88;;;;;;;;;;5420329;26;20019;-63
2024/04/13 07:05:59;;;;;;;10.82;4.43;;;;;;;;;;5410863;25;20070;-63
2024/04/13 07:08:27;;;;;;;13.65;4.75;;;;;;;;;;5384197;26;20055;-63
2024/04/13 07:10:57;;;;;;;10.80;4.40;;;;;;;;;;5388174;26;20123;-62
2024/04/13 07:13:26;;;;;;;16.40;5.63;;;;;;;;;;5393195;26;20010;-62
2024/04/13 07:15:51;;;;;;;15.90;5.20;;;;;;;;;;5442950;25;20061;-62
2024/04/13 07:18:20;;;;;;;9.65;4.40;;;;;;;;;;5390739;26;20016;-62
2024/04/13 07:20:46;;;;;;;12.82;5.00;;;;;;;;;;5399636;26;20052;-62
2024/04/13 07:23:17;;;;;;;11.35;5.03;;;;;;;;;;5399423;26;20028;-62
2024/04/13 07:25:43;;;;;;;11.05;5.15;;;;;;;;;;5437679;25;20013;-63
2024/04/13 07:28:12;;;;;;;11.95;4.93;;;;;;;;;;5395396;26;20022;-62
2024/04/13 07:30:37;;;;;;;8.40;4.53;;;;;;;;;;5408726;26;19998;-62
2024/04/13 07:33:06;;;;;;;13.10;5.68;;;;;;;;;;5409819;25;19999;-62
2024/04/13 07:35:35;;;;;;;13.00;5.38;;;;;;;;;;5450300;25;20053;-63
2024/04/13 07:38:03;;;;;;;;;;;;;;;;;;5409029;26;20028;-63
2024/04/13 07:40:31;;;;;;;9.15;4.22;;;;;;;;;;5408097;26;19928;-63
2024/04/13 07:42:59;;;;;;;12.60;4.78;;;;;;;;;;5396593;26;20003;-63
2024/04/13 07:45:25;;;;;;;12.98;5.50;;;;;;;;;;5389046;26;20255;-63
2024/04/13 07:47:54;;;;;;;14.32;5.88;;;;;;;;;;5379101;26;20020;-63
2024/04/13 07:50:20;;;;;;;15.23;5.00;;;;;;;;;;5372161;26;19996;-63
2024/04/13 07:52:48;;;;;;;10.43;5.13;;;;;;;;;;5382197;26;20015;-62
2024/04/13 07:55:14;;;;;;;12.32;5.10;;;;;;;;;;5399989;26;19995;-62
2024/04/13 07:57:45;;;;;;;16.23;5.00;;;;;;;;;;5401414;26;20021;-63
2024/04/13 08:00:13;;;;;;;15.70;5.38;;;;;;;;;;5418266;26;20031;-62
2024/04/13 08:02:41;;;;;;;12.10;5.13;;;;;;;;;;5408604;25;19999;-63
2024/04/13 08:05:08;;;;;;;13.15;5.15;;;;;;;;;;5363931;25;20023;-64
2024/04/13 08:07:37;;;;;;;11.05;4.93;;;;;;;;;;5361531;26;20014;-62
2024/04/13 08:10:07;;;;;;;10.70;4.47;;;;;;;;;;5353418;26;20004;-63
2024/04/13 08:12:35;;;;;;;10.70;4.03;;;;;;;;;;5357281;26;20022;-62
2024/04/13 08:15:10;;;;;;;11.65;5.15;;;;;;;;;;5397478;25;20006;-62
2024/04/13 08:17:37;;;;;;;15.88;5.25;;;;;;;;;;5420869;26;20061;-63
2024/04/13 08:20:08;;;;;;;15.13;6.05;;;;;;;;;;5389838;26;19999;-63
2024/04/13 08:22:34;;;;;;;16.13;7.28;;;;;;;;;;5410677;26;20014;-63
2024/04/13 08:25:02;;;;;;;17.88;8.82;;;;;;;;;;5405849;25;20014;-63
2024/04/13 08:27:30;;;;;;;12.05;5.35;;;;;;;;;;5403110;26;20019;-63
2024/04/13 08:29:58;;;;;;;14.68;5.55;;;;;;;;;;5398906;26;20030;-63
2024/04/13 08:32:27;;;;;;;12.40;4.78;;;;;;;;;;5398492;26;21172;-62
2024/04/13 08:34:55;;;;;;;13.02;4.68;;;;;;;;;;5395134;25;19998;-61
2024/04/13 08:37:21;;;;;;;11.05;4.95;;;;;;;;;;5407195;26;20053;-62
2024/04/13 08:39:51;;;;;;;10.35;4.80;;;;;;;;;;5397397;26;20023;-62
2024/04/13 08:42:31;;;;;;;10.10;5.18;;;;;;;;;;5384635;26;20058;-62
2024/04/13 08:45:00;;;;;;;12.25;4.78;;;;;;;;;;5405720;25;20044;-62
2024/04/13 08:47:31;;;;;;;11.95;5.25;;;;;;;;;;5383995;26;19999;-62
2024/04/13 08:50:03;;;;;;;10.40;4.65;;;;;;;;;;5398076;26;20066;-62
2024/04/13 08:52:30;;;;;;;14.38;5.07;;;;;;;;;;5405093;25;20002;-62
2024/04/13 08:54:59;;;;;;;12.10;5.07;;;;;;;;;;5361376;26;20031;-62
2024/04/13 08:57:25;;;;;;;;;;;;;;;;;;5391571;26;20015;-63
2024/04/13 09:00:08;;;;;;;11.82;4.53;;;;;;;;;;5396172;25;19941;-66
2024/04/13 09:02:38;;;;;;;11.45;5.03;;;;;;;;;;5393160;26;20018;-63
2024/04/13 09:05:12;;;;;;;13.48;5.00;;;;;;;;;;5394443;26;20006;-64
2024/04/13 09:07:39;;;;;;;11.55;5.40;;;;;;;;;;5415243;26;20065;-63
2024/04/13 09:10:09;;;;;;;12.68;5.50;;;;;;;;;;5393369;26;20007;-63
2024/04/13 09:12:35;;;;;;;12.07;5.38;;;;;;;;;;5395229;26;19999;-63
2024/04/13 09:15:04;;;;;;;16.02;5.82;;;;;;;;;;5389559;25;19999;-64
2024/04/13 09:17:32;;;;;;;12.80;5.15;;;;;;;;;;5390017;26;19999;-63
2024/04/13 09:20:07;;;;;;;13.05;5.32;;;;;;;;;;5421971;25;20007;-62
2024/04/13 09:22:34;;;;;;;12.85;5.10;;;;;;;;;;5402635;26;20006;-63
2024/04/13 09:25:03;;;;;;;13.07;5.80;;;;;;;;;;5391192;25;20003;-63
2024/04/13 09:27:30;;;;;;;11.68;5.05;;;;;;;;;;5402259;26;20003;-64
2024/04/13 09:30:10;;;;;;;12.93;5.28;;;;;;;;;;5399070;26;20080;-64
2024/04/13 09:32:36;;;;;;;14.52;5.47;;;;;;;;;;5410526;26;20006;-64
2024/04/13 09:35:19;;;;;;;17.63;5.60;;;;;;;;;;5413855;26;20012;-63
2024/04/13 09:37:45;;;;;;;22.40;5.93;;;;;;;;;;5387864;26;20003;-65
2024/04/13 09:40:21;;;;;;;16.13;5.75;;;;;;;;;;5399669;25;20018;-63
2024/04/13 09:42:48;;;;;;;11.88;5.57;;;;;;;;;;5423501;26;20051;-63
2024/04/13 09:45:18;;;;;;;14.02;6.97;;;;;;;;;;5364998;26;20011;-63
2024/04/13 09:47:45;;;;;;;19.23;7.45;;;;;;;;;;5363301;26;20015;-64
2024/04/13 09:50:17;;;;;;;20.33;8.48;;;;;;;;;;5360353;26;20129;-66
2024/04/13 09:52:43;;;;;;;13.23;7.03;;;;;;;;;;5365052;26;20000;-63
2024/04/13 09:55:12;;;;;;;14.95;6.35;;;;;;;;;;5346668;26;20054;-64
2024/04/13 09:57:41;;;;;;;12.98;6.03;;;;;;;;;;5361808;26;20012;-65
2024/04/13 10:00:10;;;;;;;14.85;6.35;;;;;;;;;;5340947;26;20004;-63
2024/04/13 10:02:36;;;;;;;16.13;5.90;;;;;;;;;;5358658;26;20040;-63
2024/04/13 10:05:23;;;;;;;15.07;5.85;;;;;;;;;;5374687;26;20060;-63
2024/04/13 10:07:52;;;;;;;15.18;5.38;;;;;;;;;;5406915;26;20003;-64
2024/04/13 10:10:21;;;;;;;12.13;6.20;;;;;;;;;;5414182;26;20097;-64
2024/04/13 10:12:49;;;;;;;11.68;5.43;;;;;;;;;;5395134;26;20023;-64
2024/04/13 10:15:21;;;;;;;14.40;5.75;;;;;;;;;;5381026;25;19999;-63
2024/04/13 10:17:49;;;;;;;18.13;5.72;;;;;;;;;;5397832;26;20016;-64
2024/04/13 10:20:18;;;;;;;13.80;5.80;;;;;;;;;;5398692;25;19996;-64
2024/04/13 10:22:54;;;;;;;13.80;5.70;;;;;;;;;;5408327;26;20068;-64
2024/04/13 10:25:28;;;;;;;12.13;5.00;;;;;;;;;;5408337;25;20002;-66
2024/04/13 10:28:04;;;;;;;10.52;5.28;;;;;;;;;;5409793;26;20063;-65
2024/04/13 10:30:44;;;;;;;12.95;5.38;;;;;;;;;;5412619;26;20006;-65
2024/04/13 10:33:17;;;;;;;17.33;7.20;;;;;;;;;;5412374;26;20146;-64
2024/04/13 10:35:58;;;;;;;19.73;10.25;;;;;;;;;;5443668;25;20013;-64
2024/04/13 10:38:27;;;;;;;15.65;6.13;;;;;;;;;;5396447;25;19995;-63
2024/04/13 10:40:56;;;;;;;12.23;5.35;;;;;;;;;;5399571;26;20299;-64
2024/04/13 10:43:23;;;;;;;13.63;4.78;;;;;;;;;;5404995;26;20086;-63
2024/04/13 10:45:56;;;;;;;12.82;4.40;;;;;;;;;;5374753;26;20001;-64
2024/04/13 10:48:22;;;;;;;9.95;5.07;;;;;;;;;;5402002;26;20017;-63
2024/04/13 10:50:54;;;;;;;14.52;4.85;;;;;;;;;;5398619;26;20000;-63
2024/04/13 10:53:23;;;;;;;10.05;4.63;;;;;;;;;;5403331;26;20097;-64
2024/04/13 10:55:55;;;;;;;12.75;5.18;;;;;;;;;;5402828;26;20014;-63
2024/04/13 10:58:27;;;;;;;12.32;4.55;;;;;;;;;;5415722;25;20017;-64
2024/04/13 11:00:57;;;;;;;8.80;4.28;;;;;;;;;;5418751;25;20015;-67
2024/04/13 11:03:24;;;;;;;16.92;4.88;;;;;;;;;;5417440;26;20007;-68
2024/04/13 11:05:52;;;;;;;13.02;4.60;;;;;;;;;;5420471;25;20167;-63
2024/04/13 11:08:23;;;;;;;14.32;4.50;;;;;;;;;;5408696;26;20007;-64
2024/04/13 11:10:53;;;;;;;10.55;4.45;;;;;;;;;;5402734;26;20022;-67
2024/04/13 11:13:22;;;;;;;9.27;4.43;;;;;;;;;;5404519;26;20003;-64
2024/04/13 11:15:48;;;;;;;11.27;5.07;;;;;;;;;;5446401;26;20036;-63
2024/04/13 11:18:17;;;;;;;8.57;4.10;;;;;;;;;;5411436;26;20007;-64
2024/04/13 11:20:48;;;;;;;11.15;3.88;;;;;;;;;;5409396;26;20007;-65
2024/04/13 11:23:17;;;;;;;8.35;3.28;;;;;;;;;;5402870;26;20022;-62
2024/04/13 11:25:45;;;;;;;9.13;3.70;;;;;;;;;;5374096;26;20006;-64
2024/04/13 11:28:16;;;;;;;10.93;3.60;;;;;;;;;;5340918;26;20008;-64
2024/04/13 11:30:42;;;;;;;12.18;3.80;;;;;;;;;;5356988;26;20007;-65
2024/04/13 11:33:11;;;;;;;8.05;3.50;;;;;;;;;;5357315;26;20004;-64
2024/04/13 11:35:36;;;;;;;13.10;3.33;;;;;;;;;;5362734;26;19999;-63
2024/04/13 11:38:09;;;;;;;9.68;3.35;;;;;;;;;;5398699;25;20060;-66
2024/04/13 11:40:35;;;;;;;8.63;3.42;;;;;;;;;;5396051;26;20003;-63
2024/04/13 11:43:05;;;;;;;10.45;3.97;;;;;;;;;;5396114;26;20082;-64
2024/04/13 11:45:33;;;;;;;11.50;4.72;;;;;;;;;;5364446;26;20006;-63
2024/04/13 11:48:02;;;;;;;13.15;4.20;;;;;;;;;;5406730;26;20052;-64
2024/04/13 11:50:29;;;;;;;;;;;;;;;;;;5405007;26;20018;-64
2024/04/13 11:52:58;;;;;;;10.07;3.10;;;;;;;;;;5416048;25;19932;-67
2024/04/13 11:55:28;;;;;;;8.90;3.38;;;;;;;;;;5374300;25;20007;-63
2024/04/13 11:57:57;;;;;;;9.32;3.08;;;;;;;;;;5403969;26;20006;-64
2024/04/13 12:00:25;;;;;;;12.73;3.05;;;;;;;;;;5395032;26;20108;-63
2024/04/13 12:02:56;;;;;;;8.90;3.47;;;;;;;;;;5395874;25;20003;-62
2024/04/13 12:05:22;;;;;;;6.90;2.80;;;;;;;;;;5371242;26;20003;-62
2024/04/13 12:07:52;;;;;;;7.75;2.40;;;;;;;;;;5400788;26;20003;-63
2024/04/13 12:10:18;;;;;;;4.95;2.35;;;;;;;;;;5402890;26;20018;-65
2024/04/13 12:12:46;;;;;;;7.85;2.80;;;;;;;;;;5400306;26;20003;-63
2024/04/13 12:15:12;;;;;;;;;;;;;;;;;;5357278;25;20127;-66
2024/04/13 12:17:40;;;;;;;5.97;2.60;;;;;;;;;;5377201;25;19932;-65
2024/04/13 12:20:14;;;;;;;;;;;;;;;;;;5370310;26;20020;-63
2024/04/13 12:22:42;;;;;;;6.78;2.95;;;;;;;;;;5350699;26;19933;-64
2024/04/13 12:25:08;;;;;;;;;;;;;;;;;;5329212;26;20068;-63
2024/04/13 12:27:36;;;;;;;11.00;3.03;;;;;;;;;;5339321;26;19929;-63
2024/04/13 12:30:05;;;;;;;;;;;;;;;;;;5327599;26;20005;-64
2024/04/13 12:32:39;;;;;;;18.67;8.30;;;;;;;;;;5330047;26;19950;-66
2024/04/13 12:35:10;;;;;;;6.90;2.85;;;;;;;;;;5342836;26;20011;-65
2024/04/13 12:37:39;;;;;;;5.63;2.38;;;;;;;;;;5387092;26;20004;-63
2024/04/13 12:40:08;;;;;;;;;;;;;;;;;;5347848;26;20004;-68
2024/04/13 12:42:36;;;;;;;8.18;2.53;;;;;;;;;;5362817;26;19933;-63
2024/04/13 12:45:05;;;;;;;;;;;;;;;;;;5385836;25;19998;-62
2024/04/13 12:47:34;;;;;;;8.30;2.70;;;;;;;;;;5419057;25;19950;-65
2024/04/13 12:49:59;;;;;;;6.22;2.67;;;;;;;;;;5395160;26;20008;-65
2024/04/13 12:52:31;;;;;;;6.35;2.60;;;;;;;;;;5395807;26;20035;-65
2024/04/13 12:54:56;;;;;;;8.73;3.00;;;;;;;;;;5396765;26;20014;-63
2024/04/13 12:57:25;;;;;;;9.55;2.72;;;;;;;;;;5407811;25;20031;-64
2024/04/13 12:59:50;;;;;;;;;;;;;;;;;;5407776;26;20023;-65
2024/04/13 13:02:20;;;;;;;5.10;2.00;;;;;;;;;;5395303;26;19937;-65
2024/04/13 13:04:48;;;;;;;4.40;2.08;;;;;;;;;;5394481;26;20002;-66
2024/04/13 13:07:17;;;;;;;5.82;2.00;;;;;;;;;;5447926;25;20049;-64
2024/04/13 13:09:45;;;;;;;;;;;;;;;;;;5409759;26;20010;-66
2024/04/13 13:12:13;;;;;;;6.40;2.08;;;;;;;;;;5391773;26;19957;-65
2024/04/13 13:14:39;;;;;;;8.75;2.55;;;;;;;;;;5371575;25;20001;-65
2024/04/13 13:17:07;;;;;;;4.53;1.85;;;;;;;;;;5360500;26;20000;-66
2024/04/13 13:19:34;;;;;;;7.45;2.08;;;;;;;;;;5361743;26;20035;-64
2024/04/13 13:22:02;;;;;;;7.82;1.60;;;;;;;;;;5362810;26;20008;-64
2024/04/13 13:24:29;;;;;;;8.38;1.75;;;;;;;;;;5368984;26;20011;-67
2024/04/13 13:27:02;;;;;;;6.82;1.67;;;;;;;;;;5407057;26;20004;-64
2024/04/13 13:29:28;;;;;;;6.45;1.58;;;;;;;;;;5362224;26;20015;-63
2024/04/13 13:31:59;;;;;;;10.65;2.03;;;;;;;;;;5355375;26;20036;-65
2024/04/13 13:34:25;;;;;;;5.22;1.70;;;;;;;;;;5349571;26;20004;-65
2024/04/13 13:36:53;;;;;;;3.88;1.55;;;;;;;;;;5414563;26;20056;-65
2024/04/13 13:39:19;;;;;;;4.97;1.67;;;;;;;;;;5372776;26;21123;-65
2024/04/13 13:41:47;;;;;;;7.38;1.98;;;;;;;;;;5361840;26;20004;-65
2024/04/13 13:44:15;;;;;;;5.25;1.85;;;;;;;;;;5339070;26;20044;-64
2024/04/13 13:46:44;;;;;;;5.38;1.60;;;;;;;;;;5398025;26;20000;-66
2024/04/13 13:49:09;;;;;;;;;;;;;;;;;;5358059;26;20151;-64
2024/04/13 13:51:40;;;;;;;7.68;2.22;;;;;;;;;;5359861;26;19925;-63
2024/04/13 13:54:07;;;;;;;6.03;1.63;;;;;;;;;;5339959;26;20000;-65
2024/04/13 13:56:36;;;;;;;6.35;1.70;;;;;;;;;;5299687;26;20008;-65
2024/04/13 13:59:04;;;;;;;5.15;1.92;;;;;;;;;;5354189;26;20011;-63
2024/04/13 14:01:35;;;;;;;8.90;2.03;;;;;;;;;;5359701;26;20020;-61
2024/04/13 14:04:03;;;;;;;9.27;2.50;;;;;;;;;;5343460;26;20004;-65
2024/04/13 14:06:34;;;;;;;;;;;;;;;;;;5277779;26;20001;-64
2024/04/13 14:09:00;;;;;;;9.23;2.63;;;;;;;;;;5318192;26;19927;-63
2024/04/13 14:11:30;;;;;;;10.60;4.60;;;;;;;;;;5199883;26;20005;-63
2024/04/13 14:14:12;;;;;;;6.65;1.95;;;;;;;;;;5325400;26;20005;-64
2024/04/13 14:16:45;;;;;;;5.32;2.10;;;;;;;;;;5314158;26;20016;-63
2024/04/13 14:19:14;;;;;;;5.30;2.05;;;;;;;;;;5371636;26;20004;-63
2024/04/13 14:21:41;;;;;;;6.50;1.90;;;;;;;;;;5271479;26;19999;-65
2024/04/13 14:24:12;;;;;;;4.55;1.60;;;;;;;;;;5360388;26;20008;-64
2024/04/13 14:26:39;;;;;;;9.13;2.10;;;;;;;;;;5347106;26;20000;-63
2024/04/13 14:29:09;;;;;;;6.82;1.83;;;;;;;;;;5346129;26;20016;-63
2024/04/13 14:31:35;;;;;;;8.70;2.25;;;;;;;;;;5390616;26;20010;-63
2024/04/13 14:34:07;;;;;;;6.50;1.58;;;;;;;;;;5371917;26;20008;-65
2024/04/13 14:36:33;;;;;;;6.45;2.05;;;;;;;;;;5361884;26;20007;-64
2024/04/13 14:39:01;;;;;;;5.90;2.30;;;;;;;;;;5366315;26;20057;-64
2024/04/13 14:41:27;;;;;;;8.18;2.45;;;;;;;;;;5377997;26;20038;-65
2024/04/13 14:43:56;;;;;;;8.30;2.55;;;;;;;;;;5386106;26;20023;-65
2024/04/13 14:46:21;;;;;;;6.10;1.98;;;;;;;;;;5378014;26;20014;-65
2024/04/13 14:48:50;;;;;;;5.38;1.88;;;;;;;;;;5384136;26;20000;-63
2024/04/13 14:51:18;;;;;;;9.93;1.75;;;;;;;;;;5379800;26;20008;-63